Time;durP1;ratioP1;P1;durP2;ratioP2;P2;SDS_P1;SDS_P2;PMS_P1;PMS_P2;Temp;Humidity;BMP_temperature;BMP_pressure;BME280_temperature;BME280_humidity;BME280_pressure;Samples;Min_cycle;Max_cycle;Signal;HPM_P1;HPM_P2
2021/08/01 00:02:01;;;;;;;3.10;2.80;;;;;;;16.86;100.00;100057.03;4970585;28;20727;-70
2021/08/01 00:04:27;;;;;;;6.00;3.15;;;;;;;16.97;100.00;100063.75;4970748;28;20199;-71
2021/08/01 00:06:55;;;;;;;3.35;3.05;;;;;;;16.92;100.00;100068.63;4954254;28;20256;-72
2021/08/01 00:09:24;;;;;;;4.53;2.90;;;;;;;16.89;100.00;100059.13;4954798;29;20209;-72
2021/08/01 00:11:50;;;;;;;5.53;3.28;;;;;;;16.93;100.00;100058.13;4970182;28;20624;-73
2021/08/01 00:14:18;;;;;;;4.25;3.00;;;;;;;16.87;100.00;100064.13;4955744;28;20186;-71
2021/08/01 00:16:43;;;;;;;4.15;2.60;;;;;;;16.91;100.00;100054.13;4954148;28;20696;-71
2021/08/01 00:19:11;;;;;;;6.10;3.28;;;;;;;17.01;100.00;100070.22;4954387;29;20179;-72
2021/08/01 00:21:37;;;;;;;3.45;3.15;;;;;;;16.96;100.00;100057.47;4954258;28;20222;-71
2021/08/01 00:24:02;;;;;;;4.40;3.28;;;;;;;17.01;100.00;100048.25;4954700;29;20246;-70
2021/08/01 00:26:28;;;;;;;7.10;4.18;;;;;;;16.90;100.00;100040.72;4938020;29;20223;-71
2021/08/01 00:28:56;;;;;;;4.18;3.45;;;;;;;16.85;100.00;100049.94;4924169;29;20183;-70
2021/08/01 00:31:26;;;;;;;5.32;3.45;;;;;;;16.84;100.00;100051.06;4955274;28;20219;-71
2021/08/01 00:33:54;;;;;;;7.50;4.15;;;;;;;16.93;100.00;100040.88;4954086;28;20187;-71
2021/08/01 00:36:21;;;;;;;6.43;3.67;;;;;;;16.90;100.00;100040.72;4938237;28;20249;-71
2021/08/01 00:38:49;;;;;;;6.03;3.58;;;;;;;16.93;100.00;100040.88;4955019;29;20183;-70
2021/08/01 00:41:21;;;;;;;5.05;3.85;;;;;;;16.92;100.00;100038.44;4955181;28;20230;-71
2021/08/01 00:43:52;;;;;;;5.47;3.97;;;;;;;16.90;100.00;100041.50;4954650;28;20210;-72
2021/08/01 00:46:18;;;;;;;6.47;4.10;;;;;;;16.83;100.00;100046.72;4953786;28;20229;-71
2021/08/01 00:48:46;;;;;;;7.10;3.88;;;;;;;16.92;100.00;100041.97;4954291;28;20270;-72
2021/08/01 00:51:13;;;;;;;5.63;4.45;;;;;;;16.78;100.00;100035.91;4969552;28;20223;-71
2021/08/01 00:53:43;;;;;;;5.10;4.05;;;;;;;16.84;100.00;100040.09;4954014;28;20194;-70
2021/08/01 00:56:11;;;;;;;7.47;4.43;;;;;;;17.02;100.00;100052.63;4953704;28;20613;-70
2021/08/01 00:58:37;;;;;;;5.60;5.10;;;;;;;16.91;100.00;100048.63;4953743;29;20247;-70
2021/08/01 01:01:07;;;;;;;5.70;4.55;;;;;;;16.89;100.00;100045.41;4953526;28;20276;-71
2021/08/01 01:03:53;;;;;;;10.57;5.50;;;;;;;16.95;100.00;100035.84;4954027;29;20277;-71
2021/08/01 01:06:35;;;;;;;7.15;4.25;;;;;;;16.88;100.00;100042.97;4933992;29;20223;-71
2021/08/01 01:09:13;;;;;;;5.65;4.70;;;;;;;16.92;100.00;100032.97;4921499;29;20193;-74
2021/08/01 01:12:04;;;;;;;7.60;5.03;;;;;;;16.92;100.00;100044.72;4953353;28;20266;-71
2021/08/01 01:14:33;;;;;;;8.77;5.78;;;;;;;16.90;100.00;100044.25;4938581;29;20175;-71
2021/08/01 01:17:01;;;;;;;7.70;5.15;;;;;;;16.84;100.00;100042.84;4926204;28;20627;-71
2021/08/01 01:20:05;;;;;;;5.95;5.07;;;;;;;16.87;100.00;100050.41;4920973;29;20187;-71
2021/08/01 01:22:57;;;;;;;7.22;5.22;;;;;;;16.89;100.00;100055.59;4947817;29;20269;-71
2021/08/01 01:26:02;;;;;;;7.40;5.35;;;;;;;16.90;100.00;100047.00;4953296;28;20222;-72
2021/08/01 01:28:50;;;;;;;6.45;5.53;;;;;;;16.83;100.00;100054.13;4969064;28;20221;-71
2021/08/01 01:31:15;;;;;;;9.73;5.95;;;;;;;16.83;100.00;100051.38;4952668;28;20235;-71
2021/08/01 01:33:55;;;;;;;7.63;5.60;;;;;;;16.96;100.00;100046.50;4953545;29;20242;-73
2021/08/01 01:36:27;;;;;;;7.45;5.78;;;;;;;16.91;100.00;100042.34;4949370;28;20301;-70
2021/08/01 01:39:01;;;;;;;9.40;6.32;;;;;;;16.87;100.00;100044.09;4922666;29;20186;-71
2021/08/01 01:41:46;;;;;;;8.20;6.20;;;;;;;16.90;100.00;100047.00;4927387;29;20266;-72
2021/08/01 01:44:23;;;;;;;7.93;6.68;;;;;;;16.81;100.00;100042.69;4937644;29;20190;-72
2021/08/01 01:46:51;;;;;;;8.15;6.82;;;;;;;16.78;100.00;100038.66;4951849;28;20602;-71
2021/08/01 01:49:17;;;;;;;10.00;7.53;;;;;;;16.88;100.00;100043.78;4937360;28;20270;-72
2021/08/01 01:51:51;;;;;;;7.18;6.13;;;;;;;16.93;100.00;100035.38;4919936;29;20235;-71
2021/08/01 01:54:22;;;;;;;8.05;6.78;;;;;;;16.91;100.00;100023.13;4919088;29;20198;-72
2021/08/01 01:56:48;;;;;;;7.72;6.72;;;;;;;16.94;100.00;100020.53;4920814;29;20622;-72
2021/08/01 01:59:15;;;;;;;10.25;7.78;;;;;;;16.79;100.00;100007.34;4921276;29;20217;-71
2021/08/01 02:01:43;;;;;;;10.77;7.55;;;;;;;16.79;100.00;100018.31;4924675;29;20219;-72
2021/08/01 02:04:08;;;;;;;10.02;7.68;;;;;;;16.87;100.00;100019.41;4952763;29;20187;-72
2021/08/01 02:06:55;;;;;;;9.38;7.15;;;;;;;16.83;100.00;100013.81;4948979;29;20237;-74
2021/08/01 02:09:57;;;;;;;10.90;7.82;;;;;;;16.87;100.00;100016.66;4939195;28;20194;-71
2021/08/01 02:12:31;;;;;;;10.93;7.68;;;;;;;16.84;100.00;100009.13;4939185;29;20282;-72
2021/08/01 02:15:06;;;;;;;9.10;7.70;;;;;;;16.85;100.00;100022.50;4952636;28;20194;-72
2021/08/01 02:17:52;;;;;;;8.63;7.78;;;;;;;16.85;100.00;100018.94;4948391;29;20764;-71
2021/08/01 02:20:22;;;;;;;11.32;7.93;;;;;;;16.81;100.00;100023.47;4934179;28;20186;-71
2021/08/01 02:23:15;;;;;;;9.77;7.68;;;;;;;16.82;100.00;100023.16;4952602;28;20275;-71
2021/08/01 02:25:43;;;;;;;9.63;8.45;;;;;;;16.91;100.00;100015.69;4936854;28;20298;-72
2021/08/01 02:28:09;;;;;;;8.38;7.57;;;;;;;16.98;100.00;100010.50;4951663;28;20199;-71
2021/08/01 02:30:35;;;;;;;9.55;7.78;;;;;;;16.86;100.00;100015.88;4936326;29;20724;-72
2021/08/01 02:33:01;;;;;;;10.90;8.18;;;;;;;16.75;100.00;100006.38;4936448;29;20215;-71
2021/08/01 02:35:29;;;;;;;8.85;7.90;;;;;;;16.83;100.00;100013.81;4952115;28;20231;-71
2021/08/01 02:37:58;;;;;;;10.50;8.93;;;;;;;16.89;100.00;100011.69;4936213;29;20266;-72
2021/08/01 02:40:31;;;;;;;9.70;8.48;;;;;;;16.70;100.00;100020.31;4937045;28;20223;-71
2021/08/01 02:42:57;;;;;;;9.60;8.70;;;;;;;16.91;100.00;100023.13;4918000;29;20183;-72
2021/08/01 02:45:26;;;;;;;9.93;8.93;;;;;;;16.79;100.00;100026.53;4932788;29;20184;-72
2021/08/01 02:47:52;;;;;;;11.57;9.52;;;;;;;16.73;100.00;100024.31;4936129;28;20211;-72
2021/08/01 02:50:22;;;;;;;13.82;9.25;;;;;;;16.79;100.00;100026.53;4951819;28;20732;-71
2021/08/01 02:53:04;;;;;;;10.80;8.73;;;;;;;16.80;100.00;100021.88;4952591;28;20214;-71
2021/08/01 02:55:32;;;;;;;10.35;8.52;;;;;;;16.76;100.00;100018.19;4951882;28;20215;-72
2021/08/01 02:58:02;;;;;;;11.32;9.32;;;;;;;16.76;100.00;100021.72;4950973;28;20632;-71
2021/08/01 03:00:32;;;;;;;10.75;9.10;;;;;;;16.82;100.00;100023.16;4921138;28;20254;-72
2021/08/01 03:02:58;;;;;;;11.68;8.95;;;;;;;16.70;100.00;100020.31;4921851;29;20286;-71
2021/08/01 03:05:24;;;;;;;10.95;9.05;;;;;;;16.69;100.00;100029.66;4951343;28;20187;-71
2021/08/01 03:07:52;;;;;;;13.25;9.82;;;;;;;16.65;100.00;100025.97;4967529;28;20199;-71
2021/08/01 03:10:18;;;;;;;10.65;9.55;;;;;;;16.80;100.00;100013.66;4951474;28;20198;-71
2021/08/01 03:12:49;;;;;;;11.35;9.68;;;;;;;16.76;100.00;100008.00;4967721;28;20290;-71
2021/08/01 03:15:18;;;;;;;11.93;10.13;;;;;;;16.67;100.00;100009.97;4935720;28;20218;-70
2021/08/01 03:17:44;;;;;;;12.90;9.57;;;;;;;16.80;100.00;100013.66;4951686;28;20265;-71
2021/08/01 03:20:11;;;;;;;11.30;10.05;;;;;;;16.56;100.00;100008.72;4967092;28;20199;-72
2021/08/01 03:22:59;;;;;;;12.13;9.45;;;;;;;16.69;100.00;100018.69;4941780;29;20664;-70
2021/08/01 03:25:36;;;;;;;11.25;10.15;;;;;;;16.63;100.00;100024.69;4952605;28;20333;-71
2021/08/01 03:28:09;;;;;;;11.90;9.52;;;;;;;16.80;100.00;100008.97;4951182;28;20210;-72
2021/08/01 03:30:37;;;;;;;11.48;10.25;;;;;;;16.76;100.00;100013.50;4967609;28;20226;-71
2021/08/01 03:33:07;;;;;;;14.10;10.70;;;;;;;16.72;100.00;100011.72;4967785;28;20203;-71
2021/08/01 03:35:35;;;;;;;13.05;10.52;;;;;;;16.59;100.00;100013.56;4967344;28;20222;-72
2021/08/01 03:38:28;;;;;;;14.32;10.65;;;;;;;16.65;100.00;100020.47;4963228;28;20712;-71
2021/08/01 03:41:17;;;;;;;12.73;10.80;;;;;;;16.68;100.00;100017.09;4937635;29;20229;-72
2021/08/01 03:43:43;;;;;;;12.55;10.73;;;;;;;16.80;100.00;100025.41;4950502;29;20278;-70
2021/08/01 03:46:11;;;;;;;12.02;10.75;;;;;;;16.74;100.00;100026.75;4952109;28;20568;-71
2021/08/01 03:48:36;;;;;;;12.10;10.88;;;;;;;16.78;100.00;100044.16;4915984;29;20303;-70
2021/08/01 03:51:05;;;;;;;13.00;11.32;;;;;;;16.65;100.00;100056.13;4916420;29;20227;-72
2021/08/01 03:53:31;;;;;;;13.00;11.43;;;;;;;16.84;100.00;100048.31;4931519;29;20241;-72
2021/08/01 03:55:59;;;;;;;13.13;11.60;;;;;;;16.78;100.00;100060.59;4951027;28;20377;-71
2021/08/01 03:58:29;;;;;;;16.40;11.52;;;;;;;16.69;100.00;100068.03;4935652;29;20234;-71
2021/08/01 04:00:55;;;;;;;11.98;10.77;;;;;;;16.85;100.00;100069.16;4967152;28;20282;-71
2021/08/01 04:03:20;;;;;;;14.15;11.68;;;;;;;16.87;100.00;100058.66;4951429;28;20199;-71
2021/08/01 04:05:46;;;;;;;13.57;11.68;;;;;;;16.72;100.00;100059.19;4950853;28;20230;-70
2021/08/01 04:08:14;;;;;;;13.45;11.93;;;;;;;16.93;100.00;100062.03;4950935;29;20265;-70
2021/08/01 04:10:42;;;;;;;13.10;11.80;;;;;;;16.71;100.00;100064.97;4951205;28;20270;-70
2021/08/01 04:13:07;;;;;;;14.30;12.27;;;;;;;16.62;100.00;100066.94;4941996;28;20207;-72
2021/08/01 04:15:35;;;;;;;15.98;12.40;;;;;;;16.78;100.00;100065.31;4950553;28;20222;-71
2021/08/01 04:18:05;;;;;;;14.45;12.68;;;;;;;16.79;100.00;100067.69;4951989;28;20211;-71
2021/08/01 04:20:31;;;;;;;13.70;12.30;;;;;;;16.99;100.00;100067.00;4955744;28;20222;-72
2021/08/01 04:22:59;;;;;;;13.82;12.18;;;;;;;16.90;100.00;100063.47;4942110;29;20229;-71
2021/08/01 04:25:24;;;;;;;12.80;11.20;;;;;;;16.99;100.00;100067.00;4938551;28;20605;-71
2021/08/01 04:27:53;;;;;;;13.30;11.75;;;;;;;16.91;100.00;100065.09;4935199;29;20203;-73
2021/08/01 04:30:23;;;;;;;14.15;12.00;;;;;;;16.97;100.00;100059.06;4934692;28;20192;-72
2021/08/01 04:32:51;;;;;;;13.07;11.70;;;;;;;16.97;100.00;100059.06;4939574;29;20213;-71
2021/08/01 04:35:17;;;;;;;15.00;12.07;;;;;;;17.02;100.00;100058.09;4955415;28;20186;-71
2021/08/01 04:37:42;;;;;;;12.80;11.60;;;;;;;16.90;100.00;100060.72;4938097;29;20617;-72
2021/08/01 04:40:08;;;;;;;14.90;11.95;;;;;;;16.99;100.00;100064.25;4922110;28;20187;-72
2021/08/01 04:42:36;;;;;;;13.65;12.25;;;;;;;17.17;100.00;100069.38;4954294;28;20183;-71
2021/08/01 04:45:07;;;;;;;13.95;12.13;;;;;;;17.09;100.00;100066.66;4970142;28;20183;-71
2021/08/01 04:47:35;;;;;;;14.38;12.32;;;;;;;17.09;100.00;100066.66;4938273;29;20293;-72
2021/08/01 04:50:01;;;;;;;13.00;11.68;;;;;;;17.18;100.00;100059.19;4938518;29;20194;-71
2021/08/01 04:52:28;;;;;;;14.27;12.23;;;;;;;17.04;100.00;100064.88;4953772;28;20238;-72
2021/08/01 04:54:59;;;;;;;13.30;11.82;;;;;;;17.03;100.00;100067.94;4954214;29;20186;-72
2021/08/01 04:57:24;;;;;;;12.05;10.93;;;;;;;16.94;100.00;100069.94;4937580;28;20227;-71
2021/08/01 04:59:54;;;;;;;14.07;11.90;;;;;;;17.03;100.00;100066.03;4934936;29;20588;-71
2021/08/01 05:02:25;;;;;;;15.02;11.90;;;;;;;17.20;100.00;100062.44;4934560;29;20227;-71
2021/08/01 05:04:53;;;;;;;14.95;12.40;;;;;;;17.14;100.00;100075.50;4951058;29;20286;-71
2021/08/01 05:07:21;;;;;;;13.68;12.07;;;;;;;16.96;100.00;100068.47;4937381;29;20254;-72
2021/08/01 05:09:49;;;;;;;13.48;11.68;;;;;;;17.11;100.00;100058.88;4953239;29;20278;-72
2021/08/01 05:12:17;;;;;;;12.95;11.65;;;;;;;17.27;100.00;100085.50;4953524;28;20237;-72
2021/08/01 05:14:45;;;;;;;13.48;12.13;;;;;;;17.33;100.00;100087.72;4953787;28;20242;-72
2021/08/01 05:17:13;;;;;;;13.95;11.82;;;;;;;17.40;100.00;100085.25;4953435;28;20274;-73
2021/08/01 05:19:41;;;;;;;16.15;12.48;;;;;;;17.47;100.00;100084.72;4954568;28;20183;-72
2021/08/01 05:22:10;;;;;;;13.35;11.20;;;;;;;17.46;100.00;100089.41;4953112;28;20226;-72
2021/08/01 05:24:36;;;;;;;12.82;11.20;;;;;;;17.64;100.00;100092.91;4945994;28;20199;-72
2021/08/01 05:27:02;;;;;;;13.10;11.02;;;;;;;17.58;100.00;100094.19;4936950;29;20226;-70
2021/08/01 05:29:30;;;;;;;12.00;10.80;;;;;;;17.55;100.00;100086.66;4953858;28;20192;-71
2021/08/01 05:31:55;;;;;;;11.32;10.13;;;;;;;17.34;100.00;100094.81;4968428;28;20234;-71
2021/08/01 05:34:23;;;;;;;12.77;10.52;;;;;;;17.61;100.00;100086.09;4953672;29;20202;-72
2021/08/01 05:36:51;;;;;;;11.60;9.90;;;;;;;17.60;100.00;100092.75;4952791;29;20231;-73
2021/08/01 05:39:19;;;;;;;11.52;10.30;;;;;;;17.34;100.00;100092.09;4953605;28;20223;-71
2021/08/01 05:41:44;;;;;;;12.70;11.07;;;;;;;17.44;100.00;100086.22;4952948;28;20227;-71
2021/08/01 05:44:10;;;;;;;11.27;10.10;;;;;;;17.61;100.00;100080.63;4934105;29;20184;-72
2021/08/01 05:46:36;;;;;;;11.75;10.55;;;;;;;17.70;100.00;100084.13;4949403;28;20215;-72
2021/08/01 05:49:01;;;;;;;10.73;9.73;;;;;;;17.81;100.00;100079.84;4953704;28;20640;-71
2021/08/01 05:51:27;;;;;;;11.60;10.02;;;;;;;17.83;100.00;100078.38;4936538;29;20238;-72
2021/08/01 05:53:53;;;;;;;12.70;10.02;;;;;;;17.88;100.00;100080.13;4937232;29;20645;-72
2021/08/01 05:56:18;;;;;;;13.88;10.07;;;;;;;17.81;100.00;100088.09;4952651;28;20277;-72
2021/08/01 05:58:51;;;;;;;10.68;9.57;;;;;;;17.93;100.00;100088.16;4952836;29;20191;-71
2021/08/01 06:01:18;;;;;;;10.48;8.80;;;;;;;17.78;100.00;100077.75;4936925;29;20712;-71
2021/08/01 06:03:47;;;;;;;10.02;8.85;;;;;;;17.74;100.00;100077.63;4968992;28;20194;-71
2021/08/01 06:06:22;;;;;;;10.45;9.40;;;;;;;17.44;100.00;100072.47;4917902;29;20254;-71
2021/08/01 06:08:48;;;;;;;9.75;8.82;;;;;;;17.73;100.00;100072.47;4919661;29;20255;-72
2021/08/01 06:11:16;;;;;;;10.25;9.10;;;;;;;17.73;100.00;100075.22;4939207;28;20215;-71
2021/08/01 06:13:44;;;;;;;10.00;8.98;;;;;;;17.83;100.00;100078.38;4954636;29;20183;-71
2021/08/01 06:16:13;;;;;;;11.27;9.52;;;;;;;17.80;100.00;100072.72;4969375;28;20775;-71
2021/08/01 06:18:42;;;;;;;9.68;8.77;;;;;;;17.73;100.00;100062.28;4954680;29;20253;-71
2021/08/01 06:21:16;;;;;;;10.75;9.43;;;;;;;18.03;100.00;100065.78;4926524;29;20568;-71
2021/08/01 06:23:51;;;;;;;11.15;8.95;;;;;;;18.10;100.00;100072.41;4938410;29;20225;-71
2021/08/01 06:26:21;;;;;;;10.20;9.30;;;;;;;18.31;100.00;100064.94;4968106;28;20218;-71
2021/08/01 06:28:50;;;;;;;12.10;8.75;;;;;;;18.26;100.00;100065.97;4936769;29;20178;-71
2021/08/01 06:31:18;;;;;;;10.25;9.10;;;;;;;18.10;100.00;100068.84;4953067;28;20231;-72
2021/08/01 06:33:48;;;;;;;10.43;8.95;;;;;;;18.33;100.00;100077.22;4936843;29;20691;-72
2021/08/01 06:36:14;;;;;;;9.88;8.98;;;;;;;18.36;100.00;100071.03;4951603;28;20246;-72
2021/08/01 06:38:42;;;;;;;11.95;8.70;;;;;;;18.28;100.00;100073.88;4951871;29;20277;-72
2021/08/01 06:41:15;;;;;;;12.07;8.90;;;;;;;18.40;100.00;100082.16;4951853;28;20219;-72
2021/08/01 06:43:41;;;;;;;10.13;9.13;;;;;;;18.50;100.00;100074.31;4936687;29;20230;-72
2021/08/01 06:46:07;;;;;;;11.40;9.55;;;;;;;18.72;100.00;100073.94;4967575;28;20302;-71
2021/08/01 06:48:37;;;;;;;11.75;10.05;;;;;;;18.76;100.00;100078.41;4936314;29;20211;-71
2021/08/01 06:51:03;;;;;;;11.10;10.00;;;;;;;18.76;100.00;100083.91;4960622;28;20234;-71
2021/08/01 06:53:32;;;;;;;10.82;9.73;;;;;;;18.68;100.00;100079.31;4920382;29;20219;-72
2021/08/01 06:56:00;;;;;;;13.50;10.13;;;;;;;18.73;100.00;100079.06;4951380;28;20305;-71
2021/08/01 06:58:31;;;;;;;11.27;9.13;;;;;;;18.82;100.00;100079.00;4951715;29;20681;-71
2021/08/01 07:00:56;;;;;;;11.60;9.65;;;;;;;18.89;100.00;100086.34;4942346;28;20227;-72
2021/08/01 07:03:27;;;;;;;10.75;9.75;;;;;;;18.90;100.00;100093.47;4952033;29;20249;-71
2021/08/01 07:05:54;;;;;;;10.20;9.20;;;;;;;18.94;100.00;100083.38;4951321;28;20306;-71
2021/08/01 07:08:25;;;;;;;9.82;8.93;;;;;;;19.21;100.00;100071.78;4936223;29;20201;-71
2021/08/01 07:10:50;;;;;;;10.13;9.02;;;;;;;19.45;100.00;100074.53;4955531;28;20241;-71
2021/08/01 07:13:18;;;;;;;10.90;9.02;;;;;;;19.46;100.00;100084.41;4936308;29;20211;-71
2021/08/01 07:15:48;;;;;;;10.43;9.32;;;;;;;19.47;100.00;100086.03;4951353;28;20233;-72
2021/08/01 07:18:17;;;;;;;10.45;8.27;;;;;;;19.52;100.00;100089.31;4954801;28;20207;-71
2021/08/01 07:20:47;;;;;;;9.70;8.30;;;;;;;19.43;100.00;100087.84;4967370;28;20218;-73
2021/08/01 07:23:13;;;;;;;9.75;8.48;;;;;;;19.15;100.00;100086.09;4920587;29;20262;-72
2021/08/01 07:25:39;;;;;;;8.48;7.53;;;;;;;19.25;100.00;100085.63;4937994;28;20218;-72
2021/08/01 07:28:04;;;;;;;10.15;8.57;;;;;;;19.32;100.00;100075.66;4955181;28;20214;-73
2021/08/01 07:30:35;;;;;;;9.40;8.50;;;;;;;19.38;100.00;100071.56;4967300;28;20226;-72
2021/08/01 07:33:05;;;;;;;9.10;8.07;;;;;;;19.58;100.00;100078.88;4967409;28;20221;-73
2021/08/01 07:35:33;;;;;;;10.07;7.38;;;;;;;19.50;100.00;100079.81;4967098;28;20230;-72
2021/08/01 07:37:58;;;;;;;9.88;6.70;;;;;;;19.40;100.00;100085.78;4967332;28;20215;-73
2021/08/01 07:40:28;;;;;;;7.95;6.50;;;;;;;19.53;100.00;100076.38;4951320;28;20658;-72
2021/08/01 07:42:59;;;;;;;8.77;7.10;;;;;;;19.81;100.00;100067.03;4936125;29;20210;-71
2021/08/01 07:45:31;;;;;;;8.57;6.65;;;;;;;19.76;100.00;100068.09;4935108;28;20538;-72
2021/08/01 07:47:59;;;;;;;6.95;5.97;;;;;;;20.08;100.00;100067.13;4964146;28;20211;-72
2021/08/01 07:50:28;;;;;;;7.22;6.05;;;;;;;19.92;100.00;100065.44;4950267;28;20306;-72
2021/08/01 07:52:53;;;;;;;7.35;5.53;;;;;;;19.88;100.00;100065.34;4938909;28;20257;-70
2021/08/01 07:55:21;;;;;;;6.15;5.07;;;;;;;19.61;100.00;100075.44;4946173;28;20230;-72
2021/08/01 07:57:49;;;;;;;5.50;4.97;;;;;;;19.54;100.00;100076.03;4957670;28;20636;-73
2021/08/01 08:00:19;;;;;;;6.95;5.95;;;;;;;19.37;100.00;100075.44;4958733;28;20238;-73
2021/08/01 08:02:48;;;;;;;7.30;5.25;;;;;;;19.39;100.00;100073.16;4956156;28;20248;-73
2021/08/01 08:05:17;;;;;;;6.85;5.45;;;;;;;19.31;100.00;100068.56;4961130;28;20278;-74
2021/08/01 08:07:42;;;;;;;6.57;5.25;;;;;;;19.46;100.00;100067.88;4949771;28;20217;-74
2021/08/01 08:10:10;;;;;;;6.00;5.40;;;;;;;19.52;100.00;100067.28;4939737;28;20187;-71
2021/08/01 08:12:38;;;;;;;6.97;5.35;;;;;;;19.70;100.00;100069.44;4954604;29;20217;-72
2021/08/01 08:15:06;;;;;;;7.45;5.93;;;;;;;19.57;100.00;100066.25;4970757;28;20183;-73
2021/08/01 08:17:34;;;;;;;5.25;4.75;;;;;;;19.72;100.00;100067.19;4970020;28;20231;-72
2021/08/01 08:20:01;;;;;;;8.18;4.60;;;;;;;19.68;100.00;100071.75;4938774;29;20187;-73
2021/08/01 08:22:28;;;;;;;4.68;3.92;;;;;;;20.13;100.00;100072.41;4937823;29;20295;-71
2021/08/01 08:24:56;;;;;;;5.22;4.22;;;;;;;20.08;100.00;100070.69;4953196;29;20187;-72
2021/08/01 08:27:26;;;;;;;4.15;3.72;;;;;;;20.42;100.00;100069.31;4955007;28;20728;-72
2021/08/01 08:29:57;;;;;;;6.00;4.57;;;;;;;20.42;100.00;100064.63;4935845;29;20187;-71
2021/08/01 08:32:22;;;;;;;7.28;6.57;;;;;;;20.86;100.00;100062.34;4954088;28;20230;-72
2021/08/01 08:34:48;;;;;;;7.63;6.25;;;;;;;20.68;100.00;100067.75;4938555;29;20551;-74
2021/08/01 08:37:15;;;;;;;4.90;3.30;;;;;;;20.99;100.00;100068.63;4953450;28;20253;-72
2021/08/01 08:39:41;;;;;;;3.55;2.70;;;;;;;21.32;100.00;100062.38;4962197;28;20194;-71
2021/08/01 08:42:09;;;;;;;2.70;2.50;;;;;;;21.29;100.00;100067.81;4937685;29;20585;-74
2021/08/01 08:44:35;;;;;;;3.10;2.90;;;;;;;20.90;100.00;100070.75;4955732;29;20262;-73
2021/08/01 08:47:01;;;;;;;3.30;2.65;;;;;;;21.22;100.00;100069.59;4953821;28;20221;-72
2021/08/01 08:49:26;;;;;;;2.30;2.10;;;;;;;20.82;99.11;100063.41;4954393;29;20281;-75
2021/08/01 08:51:57;;;;;;;2.28;2.08;;;;;;;20.76;100.00;100059.28;4954481;28;20231;-73
2021/08/01 08:54:47;;;;;;;3.15;2.50;;;;;;;20.60;100.00;100061.22;4955130;28;20189;-75
2021/08/01 08:57:25;;;;;;;2.28;2.10;;;;;;;20.83;100.00;100059.50;4946510;28;20231;-75
2021/08/01 08:59:59;;;;;;;2.67;2.30;;;;;;;20.78;100.00;100056.97;4935733;29;20194;-74
2021/08/01 09:02:27;;;;;;;2.38;2.17;;;;;;;20.64;100.00;100067.66;4938560;29;20309;-73
2021/08/01 09:04:53;;;;;;;2.85;2.30;;;;;;;20.32;100.00;100053.28;4954647;28;20684;-73
2021/08/01 09:07:18;;;;;;;2.40;2.20;;;;;;;20.39;100.00;100053.47;4954682;28;20227;-71
2021/08/01 09:09:44;;;;;;;3.53;2.50;;;;;;;20.37;100.00;100051.06;4955091;29;20237;-73
2021/08/01 09:12:09;;;;;;;3.60;2.50;;;;;;;20.46;100.00;100055.28;4954052;28;20668;-73
2021/08/01 09:14:37;;;;;;;2.50;2.30;;;;;;;20.59;100.00;100065.09;4954151;29;20198;-73
2021/08/01 09:17:05;;;;;;;3.15;2.80;;;;;;;20.61;100.00;100062.00;4955231;28;20218;-74
2021/08/01 09:19:34;;;;;;;2.35;2.22;;;;;;;20.54;100.00;100057.06;4953887;28;20187;-71
2021/08/01 09:22:21;;;;;;;2.58;2.38;;;;;;;20.73;100.00;100051.75;4953439;28;20728;-72
2021/08/01 09:24:51;;;;;;;2.40;2.20;;;;;;;20.85;100.00;100046.94;4950674;28;20184;-71
2021/08/01 09:27:25;;;;;;;2.65;2.30;;;;;;;21.37;100.00;100045.53;4934816;29;20607;-72
2021/08/01 09:29:50;;;;;;;2.22;1.90;;;;;;;21.53;94.20;100045.56;4953565;29;20237;-71
2021/08/01 09:32:16;;;;;;;2.08;1.80;;;;;;;21.79;93.21;100049.31;4968720;28;20625;-72
2021/08/01 09:34:46;;;;;;;2.15;1.95;;;;;;;21.42;91.64;100039.75;4953403;28;20190;-71
2021/08/01 09:37:14;;;;;;;2.20;2.00;;;;;;;21.36;94.19;100041.16;4952918;28;20302;-71
2021/08/01 09:39:43;;;;;;;3.25;2.10;;;;;;;21.22;93.90;100040.78;4953213;29;20190;-72
2021/08/01 09:42:09;;;;;;;2.25;2.05;;;;;;;21.17;96.21;100037.53;4936879;29;20222;-75
2021/08/01 09:44:39;;;;;;;2.50;2.00;;;;;;;21.77;94.59;100035.06;4942394;29;20183;-73
2021/08/01 09:47:05;;;;;;;2.25;1.95;;;;;;;21.82;90.51;100030.03;4952652;28;20301;-76
2021/08/01 09:49:30;;;;;;;2.10;1.88;;;;;;;21.98;91.39;100027.22;4968702;28;20606;-75
2021/08/01 09:51:57;;;;;;;2.30;2.10;;;;;;;21.67;92.11;100032.88;4968662;28;20231;-74
2021/08/01 09:54:25;;;;;;;2.38;2.13;;;;;;;21.48;92.30;100040.28;4969763;28;20195;-76
2021/08/01 09:56:58;;;;;;;3.85;2.70;;;;;;;21.13;96.08;100041.34;4952793;28;20219;-75
2021/08/01 09:59:29;;;;;;;17.73;15.77;;;;;;;20.87;99.29;100041.06;4952665;28;20197;-75
2021/08/01 10:01:59;;;;;;;12.00;7.75;;;;;;;21.03;100.00;100031.63;4936991;29;20668;-74
2021/08/01 10:04:37;;;;;;;4.57;4.10;;;;;;;21.11;100.00;100035.38;4952954;28;20576;-74
2021/08/01 10:07:13;;;;;;;5.10;4.35;;;;;;;21.14;100.00;100029.16;4967787;28;20264;-73
2021/08/01 10:09:45;;;;;;;4.30;3.90;;;;;;;21.45;100.00;100038.25;4952372;28;20629;-73
2021/08/01 10:12:11;;;;;;;4.38;4.00;;;;;;;21.84;99.61;100035.22;4936781;28;20238;-73
2021/08/01 10:14:40;;;;;;;4.65;4.00;;;;;;;22.17;97.35;100033.63;4952647;28;20245;-75
2021/08/01 10:17:06;;;;;;;5.07;4.38;;;;;;;22.07;93.84;100037.75;4935884;28;20231;-74
2021/08/01 10:19:35;;;;;;;5.20;4.70;;;;;;;21.95;96.83;100037.06;4952260;29;20195;-76
2021/08/01 10:22:04;;;;;;;5.00;4.60;;;;;;;21.92;96.33;100036.97;4997675;23;20322;-75
2021/08/01 10:24:41;;;;;;;5.82;4.57;;;;;;;21.70;97.98;100040.41;4919711;29;20614;-75
2021/08/01 10:27:11;;;;;;;4.97;4.47;;;;;;;21.98;97.05;100036.34;4915123;29;20264;-73
2021/08/01 10:29:48;;;;;;;6.50;5.20;;;;;;;22.00;94.92;100034.81;4934117;29;20192;-73
2021/08/01 10:32:16;;;;;;;5.78;4.50;;;;;;;21.79;94.25;100039.06;4949958;29;20302;-74
2021/08/01 10:34:58;;;;;;;4.70;3.90;;;;;;;22.20;92.88;100033.69;4900945;29;21946;-73
2021/08/01 10:37:44;;;;;;;4.40;3.70;;;;;;;22.35;91.03;100023.72;4897508;29;20232;-73
2021/08/01 10:40:18;;;;;;;3.97;3.67;;;;;;;22.08;90.99;100025.50;4931504;29;20685;-73
2021/08/01 10:42:47;;;;;;;5.32;4.93;;;;;;;22.31;91.01;100022.84;4900443;29;20180;-73
2021/08/01 10:45:19;;;;;;;4.90;3.97;;;;;;;22.27;89.12;100027.50;4916583;29;20198;-71
2021/08/01 10:47:48;;;;;;;4.00;3.70;;;;;;;22.42;90.28;100013.59;4900207;29;20211;-73
2021/08/01 10:50:18;;;;;;;4.22;3.80;;;;;;;22.33;88.91;100015.78;4945046;28;20274;-73
2021/08/01 10:52:44;;;;;;;3.80;3.50;;;;;;;22.39;88.41;100006.00;4935964;29;20218;-73
2021/08/01 10:55:22;;;;;;;3.45;3.15;;;;;;;22.73;90.65;99999.53;4939316;29;20188;-72
2021/08/01 10:58:08;;;;;;;4.20;3.28;;;;;;;22.78;86.21;100000.84;4917689;29;20255;-74
2021/08/01 11:00:55;;;;;;;5.88;3.30;;;;;;;22.66;86.53;99994.69;4932002;29;20218;-73
2021/08/01 11:03:21;;;;;;;4.95;3.65;;;;;;;23.09;84.27;99992.31;4952155;29;20183;-73
2021/08/01 11:05:51;;;;;;;3.28;2.97;;;;;;;23.42;82.56;99992.47;4935404;29;20363;-74
2021/08/01 11:08:17;;;;;;;3.03;2.72;;;;;;;23.36;79.25;99994.75;4917321;29;20212;-74
2021/08/01 11:10:43;;;;;;;3.75;2.70;;;;;;;23.25;79.10;99987.44;4932666;29;20225;-73
2021/08/01 11:13:24;;;;;;;4.03;2.33;;;;;;;23.99;77.78;99983.44;4952186;28;20219;-73
2021/08/01 11:15:50;;;;;;;2.80;2.17;;;;;;;24.28;71.81;99982.63;4953060;28;20783;-75
2021/08/01 11:18:40;;;;;;;2.22;2.03;;;;;;;24.06;73.59;99979.94;4920429;29;20211;-74
2021/08/01 11:21:06;;;;;;;2.92;2.00;;;;;;;23.87;74.96;99977.31;4905160;29;20230;-75
2021/08/01 11:23:46;;;;;;;2.95;1.85;;;;;;;24.02;71.24;99976.31;4933091;29;20195;-73
2021/08/01 11:26:16;;;;;;;2.47;2.00;;;;;;;23.99;67.49;99982.63;4950448;28;20286;-73
2021/08/01 11:28:44;;;;;;;2.08;1.63;;;;;;;24.05;67.15;99981.94;4954307;28;20739;-73